sensor_id;sensor_type;location;lat;lon;timestamp;pressure;altitude;pressure_sealevel;temperature;humidity
46087;BME280;31824;49.648;8.640;2023-02-12T00:00:15;102455.69;;;4.51;100.00
46087;BME280;31824;49.648;8.640;2023-02-12T00:03:16;102447.41;;;4.54;100.00
46087;BME280;31824;49.648;8.640;2023-02-12T00:06:18;102441.53;;;4.44;100.00
46087;BME280;31824;49.648;8.640;2023-02-12T00:09:20;102437.94;;;4.60;100.00
46087;BME280;31824;49.648;8.640;2023-02-12T00:12:21;102443.38;;;4.62;100.00
46087;BME280;31824;49.648;8.640;2023-02-12T00:15:24;102440.81;;;4.50;100.00
46087;BME280;31824;49.648;8.640;2023-02-12T00:18:26;102432.03;;;4.50;100.00
46087;BME280;31824;49.648;8.640;2023-02-12T00:21:28;102443.63;;;4.52;100.00
46087;BME280;31824;49.648;8.640;2023-02-12T00:24:30;102441.72;;;4.51;100.00
46087;BME280;31824;49.648;8.640;2023-02-12T00:27:32;102437.72;;;4.53;100.00
46087;BME280;31824;49.648;8.640;2023-02-12T00:30:35;102436.03;;;4.59;100.00
46087;BME280;31824;49.648;8.640;2023-02-12T00:33:37;102444.78;;;4.60;100.00
46087;BME280;31824;49.648;8.640;2023-02-12T00:36:40;102437.22;;;4.67;100.00
46087;BME280;31824;49.648;8.640;2023-02-12T00:39:42;102442.66;;;4.63;100.00
46087;BME280;31824;49.648;8.640;2023-02-12T00:42:44;102439.84;;;4.61;100.00
46087;BME280;31824;49.648;8.640;2023-02-12T00:45:47;102442.66;;;4.63;100.00
46087;BME280;31824;49.648;8.640;2023-02-12T00:48:49;102447.41;;;4.65;100.00
46087;BME280;31824;49.648;8.640;2023-02-12T00:51:53;102448.78;;;4.69;100.00
46087;BME280;31824;49.648;8.640;2023-02-12T00:54:55;102449.75;;;4.69;100.00
46087;BME280;31824;49.648;8.640;2023-02-12T00:57:56;102447.66;;;4.61;100.00
46087;BME280;31824;49.648;8.640;2023-02-12T01:00:59;102447.84;;;4.68;100.00
46087;BME280;31824;49.648;8.640;2023-02-12T01:04:01;102452.34;;;4.69;100.00
46087;BME280;31824;49.648;8.640;2023-02-12T01:07:03;102458.50;;;4.70;100.00
46087;BME280;31824;49.648;8.640;2023-02-12T01:10:06;102454.75;;;4.68;100.00
46087;BME280;31824;49.648;8.640;2023-02-12T01:13:10;102453.06;;;4.68;100.00
46087;BME280;31824;49.648;8.640;2023-02-12T01:16:16;102456.13;;;4.71;100.00
46087;BME280;31824;49.648;8.640;2023-02-12T01:19:18;102454.22;;;4.70;100.00
46087;BME280;31824;49.648;8.640;2023-02-12T01:22:20;102457.56;;;4.69;100.00
46087;BME280;31824;49.648;8.640;2023-02-12T01:25:23;102446.19;;;4.69;100.00
46087;BME280;31824;49.648;8.640;2023-02-12T01:28:25;102440.25;;;4.76;100.00
46087;BME280;31824;49.648;8.640;2023-02-12T01:31:30;102447.59;;;4.72;100.00
46087;BME280;31824;49.648;8.640;2023-02-12T01:34:32;102451.88;;;4.66;100.00
46087;BME280;31824;49.648;8.640;2023-02-12T01:37:34;102451.88;;;4.61;100.00
46087;BME280;31824;49.648;8.640;2023-02-12T01:40:36;102441.22;;;4.65;100.00
46087;BME280;31824;49.648;8.640;2023-02-12T01:43:38;102443.09;;;4.77;100.00
46087;BME280;31824;49.648;8.640;2023-02-12T01:46:43;102445.72;;;4.71;100.00
46087;BME280;31824;49.648;8.640;2023-02-12T01:49:47;102439.78;;;4.72;100.00
46087;BME280;31824;49.648;8.640;2023-02-12T01:52:52;102440.72;;;4.73;100.00
46087;BME280;31824;49.648;8.640;2023-02-12T01:55:57;102439.56;;;4.71;100.00
46087;BME280;31824;49.648;8.640;2023-02-12T01:59:00;102438.84;;;4.78;100.00
46087;BME280;31824;49.648;8.640;2023-02-12T02:02:06;102440.22;;;4.81;100.00
46087;BME280;31824;49.648;8.640;2023-02-12T02:05:12;102433.41;;;4.76;100.00
46087;BME280;31824;49.648;8.640;2023-02-12T02:08:16;102440.00;;;4.80;100.00
46087;BME280;31824;49.648;8.640;2023-02-12T02:11:18;102435.53;;;4.79;100.00
46087;BME280;31824;49.648;8.640;2023-02-12T02:14:40;102442.16;;;4.71;100.00
46087;BME280;31824;49.648;8.640;2023-02-12T02:17:50;102431.06;;;4.61;100.00
46087;BME280;31824;49.648;8.640;2023-02-12T02:29:04;102436.72;;;4.75;100.00
46087;BME280;31824;49.648;8.640;2023-02-12T02:32:23;102440.25;;;4.76;100.00
46087;BME280;31824;49.648;8.640;2023-02-12T02:35:31;102440.50;;;4.71;100.00
46087;BME280;31824;49.648;8.640;2023-02-12T02:38:40;102437.69;;;4.64;100.00
46087;BME280;31824;49.648;8.640;2023-02-12T02:41:52;102441.22;;;4.65;100.00
46087;BME280;31824;49.648;8.640;2023-02-12T02:44:59;102434.59;;;4.72;100.00
46087;BME280;31824;49.648;8.640;2023-02-12T02:48:17;102421.81;;;4.68;100.00
46087;BME280;31824;49.648;8.640;2023-02-12T02:51:22;102426.34;;;4.64;100.00
46087;BME280;31824;49.648;8.640;2023-02-12T02:54:30;102438.63;;;4.59;100.00
46087;BME280;31824;49.648;8.640;2023-02-12T02:57:37;102433.19;;;4.63;100.00
46087;BME280;31824;49.648;8.640;2023-02-12T03:00:43;102436.50;;;4.62;100.00
46087;BME280;31824;49.648;8.640;2023-02-12T03:03:52;102437.47;;;4.57;100.00
46087;BME280;31824;49.648;8.640;2023-02-12T03:06:59;102438.63;;;4.59;100.00
46087;BME280;31824;49.648;8.640;2023-02-12T03:10:09;102439.09;;;4.62;100.00
46087;BME280;31824;49.648;8.640;2023-02-12T03:13:16;102434.63;;;4.61;100.00
46087;BME280;31824;49.648;8.640;2023-02-12T03:16:24;102430.38;;;4.50;100.00
46087;BME280;31824;49.648;8.640;2023-02-12T03:19:31;102441.94;;;4.58;100.00
46087;BME280;31824;49.648;8.640;2023-02-12T03:22:36;102437.47;;;4.63;100.00
46087;BME280;31824;49.648;8.640;2023-02-12T03:25:46;102434.16;;;4.64;100.00
46087;BME280;31824;49.648;8.640;2023-02-12T03:28:50;102431.56;;;4.52;100.00
46087;BME280;31824;49.648;8.640;2023-02-12T03:31:59;102435.13;;;4.53;100.00
46087;BME280;31824;49.648;8.640;2023-02-12T03:35:10;102439.13;;;4.56;100.00
46087;BME280;31824;49.648;8.640;2023-02-12T03:38:19;102430.38;;;4.56;100.00
46087;BME280;31824;49.648;8.640;2023-02-12T03:41:29;102442.91;;;4.59;100.00
46087;BME280;31824;49.648;8.640;2023-02-12T03:44:45;102442.19;;;4.60;100.00
46087;BME280;31824;49.648;8.640;2023-02-12T03:47:50;102443.84;;;4.59;100.00
46087;BME280;31824;49.648;8.640;2023-02-12T03:51:02;102443.16;;;4.60;100.00
46087;BME280;31824;49.648;8.640;2023-02-12T03:54:06;102449.31;;;4.55;100.00
46087;BME280;31824;49.648;8.640;2023-02-12T03:57:11;102440.09;;;4.57;100.00
46087;BME280;31824;49.648;8.640;2023-02-12T04:00:15;102447.88;;;4.51;100.00
46087;BME280;31824;49.648;8.640;2023-02-12T04:03:20;102436.97;;;4.60;100.00
46087;BME280;31824;49.648;8.640;2023-02-12T04:06:25;102437.00;;;4.65;100.00
46087;BME280;31824;49.648;8.640;2023-02-12T04:09:27;102443.81;;;4.70;100.00
46087;BME280;31824;49.648;8.640;2023-02-12T04:12:39;102446.94;;;4.68;100.00
46087;BME280;31824;49.648;8.640;2023-02-12T04:15:50;102445.97;;;4.67;100.00
46087;BME280;31824;49.648;8.640;2023-02-12T04:18:58;102450.94;;;4.66;100.00
46087;BME280;31824;49.648;8.640;2023-02-12T04:22:12;102441.72;;;4.68;100.00
46087;BME280;31824;49.648;8.640;2023-02-12T04:25:21;102453.06;;;4.68;100.00
46087;BME280;31824;49.648;8.640;2023-02-12T04:28:35;102452.59;;;4.71;100.00
46087;BME280;31824;49.648;8.640;2023-02-12T04:31:45;102454.00;;;4.69;100.00
46087;BME280;31824;49.648;8.640;2023-02-12T04:34:51;102462.06;;;4.76;100.00
46087;BME280;31824;49.648;8.640;2023-02-12T04:38:02;102459.41;;;4.87;100.00
46087;BME280;31824;49.648;8.640;2023-02-12T04:41:06;102462.22;;;4.95;100.00
46087;BME280;31824;49.648;8.640;2023-02-12T04:44:17;102460.34;;;4.88;100.00
46087;BME280;31824;49.648;8.640;2023-02-12T04:47:19;102458.47;;;4.87;100.00
46087;BME280;31824;49.648;8.640;2023-02-12T04:50:20;102467.25;;;4.82;100.00
46087;BME280;31824;49.648;8.640;2023-02-12T04:53:23;102470.28;;;4.85;100.00
46087;BME280;31824;49.648;8.640;2023-02-12T04:56:25;102471.72;;;4.88;100.00
46087;BME280;31824;49.648;8.640;2023-02-12T04:59:27;102464.38;;;4.86;100.00
46087;BME280;31824;49.648;8.640;2023-02-12T05:02:29;102461.06;;;4.81;100.00
46087;BME280;31824;49.648;8.640;2023-02-12T05:05:31;102458.25;;;4.74;100.00
46087;BME280;31824;49.648;8.640;2023-02-12T05:08:34;102455.13;;;4.88;100.00
46087;BME280;31824;49.648;8.640;2023-02-12T05:11:35;102454.91;;;4.86;100.00
46087;BME280;31824;49.648;8.640;2023-02-12T05:14:37;102458.22;;;4.91;100.00
46087;BME280;31824;49.648;8.640;2023-02-12T05:17:39;102451.63;;;4.82;100.00
46087;BME280;31824;49.648;8.640;2023-02-12T05:20:41;102450.66;;;4.76;100.00
46087;BME280;31824;49.648;8.640;2023-02-12T05:23:44;102448.75;;;4.74;100.00
46087;BME280;31824;49.648;8.640;2023-02-12T05:26:47;102443.38;;;4.62;100.00
46087;BME280;31824;49.648;8.640;2023-02-12T05:29:48;102448.81;;;4.63;100.00
46087;BME280;31824;49.648;8.640;2023-02-12T05:32:50;102442.91;;;4.64;100.00
46087;BME280;31824;49.648;8.640;2023-02-12T05:35:52;102449.28;;;4.61;100.00
46087;BME280;31824;49.648;8.640;2023-02-12T05:38:57;102458.28;;;4.68;100.00
46087;BME280;31824;49.648;8.640;2023-02-12T05:42:00;102461.56;;;4.67;100.00
46087;BME280;31824;49.648;8.640;2023-02-12T05:45:02;102454.72;;;4.73;100.00
46087;BME280;31824;49.648;8.640;2023-02-12T05:48:04;102460.16;;;4.69;100.00
46087;BME280;31824;49.648;8.640;2023-02-12T05:51:10;102460.16;;;4.69;100.00
46087;BME280;31824;49.648;8.640;2023-02-12T05:54:13;102454.72;;;4.73;100.00
46087;BME280;31824;49.648;8.640;2023-02-12T05:57:15;102460.91;;;4.63;100.00
46087;BME280;31824;49.648;8.640;2023-02-12T06:00:17;102459.19;;;4.69;100.00
46087;BME280;31824;49.648;8.640;2023-02-12T06:03:19;102449.25;;;4.66;100.00
46087;BME280;31824;49.648;8.640;2023-02-12T06:06:23;102450.91;;;4.71;100.00
46087;BME280;31824;49.648;8.640;2023-02-12T06:09:27;102457.78;;;4.77;100.00
46087;BME280;31824;49.648;8.640;2023-02-12T06:12:28;102455.41;;;4.78;100.00
46087;BME280;31824;49.648;8.640;2023-02-12T06:15:30;102454.97;;;4.69;100.00
46087;BME280;31824;49.648;8.640;2023-02-12T06:18:34;102459.19;;;4.74;100.00
46087;BME280;31824;49.648;8.640;2023-02-12T06:21:36;102459.69;;;4.78;100.00
46087;BME280;31824;49.648;8.640;2023-02-12T06:24:39;102460.63;;;4.72;100.00
46087;BME280;31824;49.648;8.640;2023-02-12T06:27:40;102457.31;;;4.73;100.00
46087;BME280;31824;49.648;8.640;2023-02-12T06:30:42;102465.34;;;4.75;100.00
46087;BME280;31824;49.648;8.640;2023-02-12T06:33:44;102463.69;;;4.76;100.00
46087;BME280;31824;49.648;8.640;2023-02-12T06:36:46;102461.53;;;4.90;100.00
46087;BME280;31824;49.648;8.640;2023-02-12T06:39:49;102466.75;;;4.84;100.00
46087;BME280;31824;49.648;8.640;2023-02-12T06:42:51;102468.88;;;4.87;100.00
46087;BME280;31824;49.648;8.640;2023-02-12T06:45:53;102474.31;;;4.88;100.00
46087;BME280;31824;49.648;8.640;2023-02-12T06:48:57;102471.25;;;4.91;100.00
46087;BME280;31824;49.648;8.640;2023-02-12T06:51:59;102477.84;;;4.95;100.00
46087;BME280;31824;49.648;8.640;2023-02-12T06:55:05;102481.41;;;4.95;100.00
46087;BME280;31824;49.648;8.640;2023-02-12T06:58:07;102482.28;;;5.07;100.00
46087;BME280;31824;49.648;8.640;2023-02-12T07:01:10;102489.16;;;5.12;100.00
46087;BME280;31824;49.648;8.640;2023-02-12T07:04:14;102494.09;;;5.22;100.00
46087;BME280;31824;49.648;8.640;2023-02-12T07:07:16;102486.97;;;5.27;100.00
46087;BME280;31824;49.648;8.640;2023-02-12T07:10:19;102502.63;;;5.21;100.00
46087;BME280;31824;49.648;8.640;2023-02-12T07:13:21;102505.22;;;5.27;100.00
46087;BME280;31824;49.648;8.640;2023-02-12T07:16:23;102507.81;;;5.27;100.00
46087;BME280;31824;49.648;8.640;2023-02-12T07:19:24;102509.22;;;5.30;100.00
46087;BME280;31824;49.648;8.640;2023-02-12T07:22:26;102512.56;;;5.29;100.00
46087;BME280;31824;49.648;8.640;2023-02-12T07:25:29;102510.88;;;5.30;100.00
46087;BME280;31824;49.648;8.640;2023-02-12T07:28:31;102517.97;;;5.36;100.00
46087;BME280;31824;49.648;8.640;2023-02-12T07:31:35;102511.34;;;5.33;100.00
46087;BME280;31824;49.648;8.640;2023-02-12T07:34:37;102512.28;;;5.39;100.00
46087;BME280;31824;49.648;8.640;2023-02-12T07:37:39;102514.66;;;5.37;100.00
46087;BME280;31824;49.648;8.640;2023-02-12T07:40:42;102508.00;;;5.39;100.00
46087;BME280;31824;49.648;8.640;2023-02-12T07:43:45;102521.03;;;5.39;100.00
46087;BME280;31824;49.648;8.640;2023-02-12T07:46:48;102516.78;;;5.40;100.00
46087;BME280;31824;49.648;8.640;2023-02-12T07:49:49;102521.50;;;5.37;100.00
46087;BME280;31824;49.648;8.640;2023-02-12T07:52:51;102518.41;;;5.39;100.00
46087;BME280;31824;49.648;8.640;2023-02-12T07:55:54;102518.16;;;5.44;100.00
46087;BME280;31824;49.648;8.640;2023-02-12T07:58:57;102526.94;;;5.38;100.00
46087;BME280;31824;49.648;8.640;2023-02-12T08:02:00;102518.88;;;5.43;100.00
46087;BME280;31824;49.648;8.640;2023-02-12T08:05:03;102523.13;;;5.48;100.00
46087;BME280;31824;49.648;8.640;2023-02-12T08:08:05;102519.59;;;5.47;100.00
46087;BME280;31824;49.648;8.640;2023-02-12T08:11:09;102531.16;;;5.55;100.00
46087;BME280;31824;49.648;8.640;2023-02-12T08:14:12;102533.53;;;5.59;100.00
46087;BME280;31824;49.648;8.640;2023-02-12T08:17:14;102529.50;;;5.55;100.00
46087;BME280;31824;49.648;8.640;2023-02-12T08:20:16;102533.53;;;5.59;100.00
46087;BME280;31824;49.648;8.640;2023-02-12T08:23:18;102533.25;;;5.63;100.00
46087;BME280;31824;49.648;8.640;2023-02-12T08:26:22;102533.50;;;5.65;100.00
46087;BME280;31824;49.648;8.640;2023-02-12T08:29:26;102539.41;;;5.64;100.00
46087;BME280;31824;49.648;8.640;2023-02-12T08:32:28;102540.09;;;5.68;100.00
46087;BME280;31824;49.648;8.640;2023-02-12T08:35:31;102546.28;;;5.69;100.00
46087;BME280;31824;49.648;8.640;2023-02-12T08:38:33;102545.78;;;5.71;100.00
46087;BME280;31824;49.648;8.640;2023-02-12T08:41:36;102545.31;;;5.74;100.00
46087;BME280;31824;49.648;8.640;2023-02-12T08:44:38;102545.06;;;5.67;100.00
46087;BME280;31824;49.648;8.640;2023-02-12T08:47:41;102542.69;;;5.68;100.00
46087;BME280;31824;49.648;8.640;2023-02-12T08:50:43;102546.88;;;5.90;100.00
46087;BME280;31824;49.648;8.640;2023-02-12T08:53:50;102549.44;;;5.96;100.00
46087;BME280;31824;49.648;8.640;2023-02-12T08:56:55;102550.63;;;6.04;100.00
46087;BME280;31824;49.648;8.640;2023-02-12T08:59:57;102557.78;;;5.88;100.00
46087;BME280;31824;49.648;8.640;2023-02-12T09:02:59;102555.84;;;5.98;100.00
46087;BME280;31824;49.648;8.640;2023-02-12T09:06:01;102550.56;;;6.10;100.00
46087;BME280;31824;49.648;8.640;2023-02-12T09:09:03;102550.47;;;6.21;100.00
46087;BME280;31824;49.648;8.640;2023-02-12T09:12:06;102556.13;;;6.30;100.00
46087;BME280;31824;49.648;8.640;2023-02-12T09:15:08;102555.88;;;6.34;100.00
46087;BME280;31824;49.648;8.640;2023-02-12T09:18:11;102559.59;;;6.41;100.00
46087;BME280;31824;49.648;8.640;2023-02-12T09:21:14;102556.69;;;6.46;100.00
46087;BME280;31824;49.648;8.640;2023-02-12T09:24:17;102553.81;;;6.50;100.00
46087;BME280;31824;49.648;8.640;2023-02-12T09:27:20;102553.75;;;6.55;100.00
46087;BME280;31824;49.648;8.640;2023-02-12T09:30:22;102556.84;;;6.58;100.00
46087;BME280;31824;49.648;8.640;2023-02-12T09:33:23;102551.13;;;6.61;100.00
46087;BME280;31824;49.648;8.640;2023-02-12T09:36:25;102553.53;;;6.54;100.00
46087;BME280;31824;49.648;8.640;2023-02-12T09:39:27;102552.28;;;6.63;100.00
46087;BME280;31824;49.648;8.640;2023-02-12T09:42:49;102557.75;;;6.89;100.00
46087;BME280;31824;49.648;8.640;2023-02-12T09:45:59;102557.69;;;6.95;100.00
46087;BME280;31824;49.648;8.640;2023-02-12T09:49:07;102560.06;;;6.93;100.00
46087;BME280;31824;49.648;8.640;2023-02-12T09:52:13;102567.47;;;6.90;100.00
46087;BME280;31824;49.648;8.640;2023-02-12T09:55:17;102566.06;;;6.86;100.00
46087;BME280;31824;49.648;8.640;2023-02-12T09:58:28;102574.09;;;6.93;100.00
46087;BME280;31824;49.648;8.640;2023-02-12T10:01:31;102569.13;;;6.89;100.00
46087;BME280;31824;49.648;8.640;2023-02-12T10:04:33;102568.81;;;6.99;100.00
46087;BME280;31824;49.648;8.640;2023-02-12T10:07:51;102566.50;;;7.14;100.00
46087;BME280;31824;49.648;8.640;2023-02-12T10:11:12;102563.88;;;7.38;100.00
46087;BME280;31824;49.648;8.640;2023-02-12T10:14:41;102561.88;;;7.24;100.00
46087;BME280;31824;49.648;8.640;2023-02-12T10:17:55;102557.50;;;7.36;100.00
46087;BME280;31824;49.648;8.640;2023-02-12T10:21:06;102555.47;;;7.22;100.00
46087;BME280;31824;49.648;8.640;2023-02-12T10:24:28;102555.38;;;7.52;100.00
46087;BME280;31824;49.648;8.640;2023-02-12T10:27:37;102554.78;;;7.60;100.00
46087;BME280;31824;49.648;8.640;2023-02-12T10:30:45;102551.78;;;7.88;100.00
46087;BME280;31824;49.648;8.640;2023-02-12T10:33:49;102551.44;;;7.80;100.00
46087;BME280;31824;49.648;8.640;2023-02-12T10:36:57;102550.66;;;7.86;100.00
46087;BME280;31824;49.648;8.640;2023-02-12T10:40:12;102540.44;;;8.01;100.00
46087;BME280;31824;49.648;8.640;2023-02-12T10:43:17;102540.91;;;7.85;100.00
46087;BME280;31824;49.648;8.640;2023-02-12T10:46:20;102544.09;;;7.96;100.00
46087;BME280;31824;49.648;8.640;2023-02-12T10:49:22;102534.56;;;7.96;100.00
46087;BME280;31824;49.648;8.640;2023-02-12T10:52:32;102537.19;;;7.96;100.00
46087;BME280;31824;49.648;8.640;2023-02-12T10:55:37;102533.06;;;7.98;100.00
46087;BME280;31824;49.648;8.640;2023-02-12T10:58:39;102532.94;;;8.09;100.00
46087;BME280;31824;49.648;8.640;2023-02-12T11:01:46;102531.94;;;8.40;100.00
46087;BME280;31824;49.648;8.640;2023-02-12T11:04:48;102524.88;;;8.08;100.00
46087;BME280;31824;49.648;8.640;2023-02-12T11:07:51;102518.63;;;7.94;100.00
46087;BME280;31824;49.648;8.640;2023-02-12T11:10:53;102516.53;;;8.36;100.00
46087;BME280;31824;49.648;8.640;2023-02-12T11:13:57;102508.09;;;8.44;100.00
46087;BME280;31824;49.648;8.640;2023-02-12T11:17:02;102509.38;;;8.54;100.00
46087;BME280;31824;49.648;8.640;2023-02-12T11:20:14;102506.25;;;8.69;100.00
46087;BME280;31824;49.648;8.640;2023-02-12T11:23:25;102498.47;;;8.89;100.00
46087;BME280;31824;49.648;8.640;2023-02-12T11:26:28;102505.41;;;8.89;100.00
46087;BME280;31824;49.648;8.640;2023-02-12T11:29:30;102495.13;;;8.90;100.00
46087;BME280;31824;49.648;8.640;2023-02-12T11:32:35;102489.88;;;8.65;100.00
46087;BME280;31824;49.648;8.640;2023-02-12T11:35:47;102489.44;;;9.00;100.00
46087;BME280;31824;49.648;8.640;2023-02-12T11:38:52;102495.84;;;8.76;100.00
46087;BME280;31824;49.648;8.640;2023-02-12T11:41:56;102482.97;;;8.65;100.00
46087;BME280;31824;49.648;8.640;2023-02-12T11:44:58;102479.06;;;8.94;100.00
46087;BME280;31824;49.648;8.640;2023-02-12T11:48:02;102473.72;;;8.87;100.00
46087;BME280;31824;49.648;8.640;2023-02-12T11:51:17;102472.66;;;9.18;100.00
46087;BME280;31824;49.648;8.640;2023-02-12T11:54:22;102476.00;;;9.04;100.00
46087;BME280;31824;49.648;8.640;2023-02-12T11:57:35;102465.09;;;9.01;100.00
46087;BME280;31824;49.648;8.640;2023-02-12T12:00:43;102464.84;;;9.25;100.00
46087;BME280;31824;49.648;8.640;2023-02-12T12:03:57;102465.38;;;9.23;100.00
46087;BME280;31824;49.648;8.640;2023-02-12T12:07:03;102453.69;;;9.01;100.00
46087;BME280;31824;49.648;8.640;2023-02-12T12:10:12;102465.28;;;9.61;100.00
46087;BME280;31824;49.648;8.640;2023-02-12T12:13:22;102454.69;;;9.74;100.00
46087;BME280;31824;49.648;8.640;2023-02-12T12:16:29;102453.81;;;9.81;100.00
46087;BME280;31824;49.648;8.640;2023-02-12T12:19:57;102447.84;;;9.82;100.00
46087;BME280;31824;49.648;8.640;2023-02-12T12:23:02;102448.78;;;9.83;100.00
46087;BME280;31824;49.648;8.640;2023-02-12T12:26:07;102449.09;;;9.78;100.00
46087;BME280;31824;49.648;8.640;2023-02-12T12:29:16;102451.88;;;9.73;100.00
46087;BME280;31824;49.648;8.640;2023-02-12T12:32:20;102452.94;;;9.68;100.00
46087;BME280;31824;49.648;8.640;2023-02-12T12:35:35;102443.31;;;9.81;100.00
46087;BME280;31824;49.648;8.640;2023-02-12T12:38:44;102435.59;;;9.75;100.00
46087;BME280;31824;49.648;8.640;2023-02-12T12:42:22;102441.44;;;10.00;100.00
46087;BME280;31824;49.648;8.640;2023-02-12T12:45:52;102433.53;;;10.00;100.00
46087;BME280;31824;49.648;8.640;2023-02-12T12:49:24;102422.03;;;9.72;100.00
46087;BME280;31824;49.648;8.640;2023-02-12T12:52:43;102426.41;;;9.79;100.00
46087;BME280;31824;49.648;8.640;2023-02-12T12:56:01;102412.84;;;9.89;100.00
46087;BME280;31824;49.648;8.640;2023-02-12T13:03:08;102406.06;;;9.91;100.00
46087;BME280;31824;49.648;8.640;2023-02-12T13:06:20;102401.38;;;10.36;100.00
46087;BME280;31824;49.648;8.640;2023-02-12T13:09:46;102407.56;;;11.12;100.00
46087;BME280;31824;49.648;8.640;2023-02-12T13:13:01;102406.13;;;11.43;100.00
46087;BME280;31824;49.648;8.640;2023-02-12T13:16:11;102398.44;;;11.66;100.00
46087;BME280;31824;49.648;8.640;2023-02-12T13:19:22;102399.56;;;11.54;100.00
46087;BME280;31824;49.648;8.640;2023-02-12T13:22:35;102391.28;;;11.44;100.00
46087;BME280;31824;49.648;8.640;2023-02-12T13:25:43;102388.22;;;13.08;100.00
46087;BME280;31824;49.648;8.640;2023-02-12T13:28:52;102378.75;;;13.94;100.00
46087;BME280;31824;49.648;8.640;2023-02-12T13:31:58;102379.63;;;15.30;100.00
46087;BME280;31824;49.648;8.640;2023-02-12T13:35:04;102377.19;;;15.40;100.00
46087;BME280;31824;49.648;8.640;2023-02-12T13:38:07;102373.72;;;14.44;100.00
46087;BME280;31824;49.648;8.640;2023-02-12T13:41:15;102375.19;;;15.22;100.00
46087;BME280;31824;49.648;8.640;2023-02-12T13:44:20;102370.72;;;13.02;100.00
46087;BME280;31824;49.648;8.640;2023-02-12T13:47:33;102380.34;;;14.24;100.00
46087;BME280;31824;49.648;8.640;2023-02-12T13:50:41;102375.47;;;13.58;100.00
46087;BME280;31824;49.648;8.640;2023-02-12T13:53:56;102363.38;;;14.06;100.00
46087;BME280;31824;49.648;8.640;2023-02-12T13:57:10;102365.88;;;13.21;100.00
46087;BME280;31824;49.648;8.640;2023-02-12T14:00:55;102364.06;;;13.43;100.00
46087;BME280;31824;49.648;8.640;2023-02-12T14:04:13;102362.25;;;13.81;100.00
46087;BME280;31824;49.648;8.640;2023-02-12T14:07:15;102365.72;;;14.51;100.00
46087;BME280;31824;49.648;8.640;2023-02-12T14:10:23;102360.09;;;13.09;100.00
46087;BME280;31824;49.648;8.640;2023-02-12T14:13:27;102353.56;;;13.28;100.00
46087;BME280;31824;49.648;8.640;2023-02-12T14:16:37;102353.59;;;13.98;100.00
46087;BME280;31824;49.648;8.640;2023-02-12T14:19:54;102340.97;;;15.57;100.00
46087;BME280;31824;49.648;8.640;2023-02-12T14:26:17;102351.38;;;13.47;100.00
46087;BME280;31824;49.648;8.640;2023-02-12T14:29:21;102346.16;;;13.40;100.00
46087;BME280;31824;49.648;8.640;2023-02-12T14:36:18;102337.38;;;12.57;100.00
46087;BME280;31824;49.648;8.640;2023-02-12T14:39:28;102333.00;;;11.84;100.00
46087;BME280;31824;49.648;8.640;2023-02-12T14:42:43;102331.53;;;11.57;100.00
46087;BME280;31824;49.648;8.640;2023-02-12T14:45:57;102331.69;;;11.44;100.00
46087;BME280;31824;49.648;8.640;2023-02-12T14:49:02;102326.59;;;11.46;100.00
46087;BME280;31824;49.648;8.640;2023-02-12T14:52:14;102325.25;;;11.13;100.00
46087;BME280;31824;49.648;8.640;2023-02-12T14:55:20;102315.72;;;11.43;100.00
46087;BME280;31824;49.648;8.640;2023-02-12T14:58:24;102319.06;;;11.20;100.00
46087;BME280;31824;49.648;8.640;2023-02-12T15:01:30;102322.41;;;10.97;100.00
46087;BME280;31824;49.648;8.640;2023-02-12T15:04:37;102313.19;;;11.01;100.00
46087;BME280;31824;49.648;8.640;2023-02-12T15:07:42;102315.81;;;10.94;100.00
46087;BME280;31824;49.648;8.640;2023-02-12T15:10:48;102321.66;;;10.98;100.00
46087;BME280;31824;49.648;8.640;2023-02-12T15:13:54;102314.31;;;10.89;100.00
46087;BME280;31824;49.648;8.640;2023-02-12T15:17:01;102318.81;;;10.90;100.00
46087;BME280;31824;49.648;8.640;2023-02-12T15:20:12;102321.03;;;10.79;100.00
46087;BME280;31824;49.648;8.640;2023-02-12T15:23:32;102311.28;;;10.78;100.00
46087;BME280;31824;49.648;8.640;2023-02-12T15:26:36;102312.69;;;10.62;100.00
46087;BME280;31824;49.648;8.640;2023-02-12T15:29:44;102319.81;;;10.49;100.00
46087;BME280;31824;49.648;8.640;2023-02-12T15:32:48;102311.94;;;10.56;100.00
46087;BME280;31824;49.648;8.640;2023-02-12T15:35:51;102320.94;;;10.51;100.00
46087;BME280;31824;49.648;8.640;2023-02-12T15:38:55;102317.91;;;10.47;100.00
46087;BME280;31824;49.648;8.640;2023-02-12T15:41:57;102315.81;;;10.38;100.00
46087;BME280;31824;49.648;8.640;2023-02-12T15:45:21;102310.47;;;10.30;100.00
46087;BME280;31824;49.648;8.640;2023-02-12T15:48:30;102307.44;;;10.20;100.00
46087;BME280;31824;49.648;8.640;2023-02-12T15:51:34;102307.59;;;10.14;100.00
46087;BME280;31824;49.648;8.640;2023-02-12T15:54:39;102310.84;;;9.99;100.00
46087;BME280;31824;49.648;8.640;2023-02-12T15:57:43;102307.66;;;9.94;100.00
46087;BME280;31824;49.648;8.640;2023-02-12T16:00:46;102307.72;;;9.82;100.00
46087;BME280;31824;49.648;8.640;2023-02-12T16:03:51;102310.13;;;9.73;100.00
46087;BME280;31824;49.648;8.640;2023-02-12T16:06:54;102315.91;;;9.70;100.00
46087;BME280;31824;49.648;8.640;2023-02-12T16:09:56;102317.34;;;9.61;100.00
46087;BME280;31824;49.648;8.640;2023-02-12T16:12:59;102307.63;;;9.40;100.00
46087;BME280;31824;49.648;8.640;2023-02-12T16:16:07;102318.78;;;9.11;100.00
46087;BME280;31824;49.648;8.640;2023-02-12T16:19:21;102324.13;;;9.26;100.00
46087;BME280;31824;49.648;8.640;2023-02-12T16:22:27;102317.38;;;9.21;100.00
46087;BME280;31824;49.648;8.640;2023-02-12T16:25:30;102312.41;;;8.76;100.00
46087;BME280;31824;49.648;8.640;2023-02-12T16:28:33;102311.22;;;8.54;100.00